createdAt,value
2022-08-08T00:09:27.643Z,93.20
2022-08-08T00:16:33.170Z,93.40
2022-08-08T00:23:40.657Z,95.00
2022-08-08T00:30:34.130Z,94.30
2022-08-08T00:37:47.050Z,93.00
2022-08-08T00:44:27.678Z,92.10
2022-08-08T00:51:38.814Z,93.70
2022-08-08T00:58:54.699Z,94.00
2022-08-08T01:06:08.121Z,94.30
2022-08-08T01:13:43.423Z,95.60
2022-08-08T01:20:49.722Z,96.00
2022-08-08T01:27:52.018Z,94.80
2022-08-08T01:34:49.738Z,94.40
2022-08-08T01:41:45.705Z,94.00
2022-08-08T01:48:51.174Z,94.30
2022-08-08T01:56:28.709Z,94.20
2022-08-08T02:03:56.018Z,96.90
2022-08-08T02:11:07.355Z,96.60
2022-08-08T02:18:34.131Z,95.80
2022-08-08T02:25:19.867Z,95.30
2022-08-08T02:32:10.849Z,95.60
2022-08-08T02:39:59.640Z,95.00
2022-08-08T02:47:04.370Z,97.30
2022-08-08T02:54:14.078Z,99.60
2022-08-08T03:01:21.170Z,99.90
2022-08-08T03:08:34.554Z,98.30
2022-08-08T03:15:57.989Z,98.30
2022-08-08T03:22:56.880Z,96.80
2022-08-08T03:29:55.673Z,96.80
2022-08-08T03:36:41.502Z,97.60
2022-08-08T03:43:25.099Z,98.10
2022-08-08T03:50:24.497Z,96.80
2022-08-08T03:58:30.878Z,98.40
2022-08-08T04:04:19.803Z,97.50
2022-08-08T04:11:10.924Z,97.00
2022-08-08T04:17:59.146Z,98.70
2022-08-08T04:24:42.491Z,98.60
2022-08-08T04:31:59.185Z,99.90
2022-08-08T04:38:33.622Z,97.90
2022-08-08T04:45:18.021Z,98.60
2022-08-08T04:52:00.572Z,99.00
2022-08-08T04:58:48.448Z,99.00
2022-08-08T05:05:44.494Z,99.90
2022-08-08T05:12:29.098Z,99.90
2022-08-08T05:20:10.985Z,99.90
2022-08-08T05:26:15.262Z,99.90
2022-08-08T05:33:03.354Z,97.70
2022-08-08T05:39:54.858Z,92.80
2022-08-08T05:46:41.504Z,90.20
2022-08-08T05:54:24.919Z,86.60
2022-08-08T06:00:33.939Z,82.80
2022-08-08T06:07:18.509Z,80.20
2022-08-08T06:14:05.948Z,77.80
2022-08-08T06:20:52.893Z,77.30
2022-08-08T06:27:53.786Z,74.40
2022-08-08T06:34:39.216Z,72.20
2022-08-08T06:41:25.628Z,69.70
2022-08-08T06:48:15.257Z,67.30
2022-08-08T06:55:01.006Z,66.80
2022-08-08T07:02:26.530Z,66.50
2022-08-08T07:09:07.761Z,65.50
2022-08-08T07:16:11.784Z,64.80
2022-08-08T07:23:02.331Z,64.00
2022-08-08T07:29:59.706Z,63.50
2022-08-08T07:36:50.396Z,62.00
2022-08-08T07:43:39.481Z,61.40
2022-08-08T07:50:25.946Z,61.00
2022-08-08T07:57:48.226Z,60.90
2022-08-08T08:04:42.978Z,59.50
2022-08-08T08:11:34.032Z,60.10
2022-08-08T08:18:31.648Z,59.30
2022-08-08T08:25:19.146Z,58.70
2022-08-08T08:32:05.510Z,60.00
2022-08-08T08:38:50.216Z,58.50
2022-08-08T08:45:38.666Z,57.50
2022-08-08T08:52:22.246Z,56.80
2022-08-08T08:59:15.358Z,57.90
2022-08-08T09:06:26.286Z,57.20
2022-08-08T09:13:11.610Z,56.30
2022-08-08T09:21:56.521Z,56.00
2022-08-08T09:27:20.002Z,54.80
2022-08-08T09:34:31.633Z,57.80
2022-08-08T09:41:12.924Z,55.80
2022-08-08T09:48:16.024Z,53.80
2022-08-08T09:55:03.844Z,55.00
2022-08-08T10:01:58.536Z,56.70
2022-08-08T10:08:50.336Z,56.80
2022-08-08T10:15:39.177Z,55.50
2022-08-08T10:22:23.770Z,56.10
2022-08-08T10:29:11.325Z,54.30
2022-08-08T10:36:08.101Z,54.50
2022-08-08T10:43:05.539Z,55.00
2022-08-08T10:50:01.506Z,54.30
2022-08-08T10:56:44.777Z,53.60
2022-08-08T11:03:36.848Z,54.60
2022-08-08T11:10:30.843Z,54.20
2022-08-08T11:17:15.606Z,53.10
2022-08-08T11:24:02.930Z,53.30
2022-08-08T11:30:50.317Z,54.00
2022-08-08T11:38:34.631Z,54.10
2022-08-08T11:44:40.387Z,55.80
2022-08-08T11:51:38.996Z,55.20
2022-08-08T11:58:33.990Z,55.40
2022-08-08T12:05:16.727Z,56.80
2022-08-08T12:11:59.259Z,56.60
2022-08-08T12:18:46.470Z,55.80
2022-08-08T12:25:30.891Z,56.20
2022-08-08T12:32:20.349Z,55.50
2022-08-08T12:39:06.763Z,56.30
2022-08-08T12:45:57.732Z,55.90
2022-08-08T12:52:54.375Z,55.80
2022-08-08T13:00:04.686Z,55.20
2022-08-08T13:07:05.991Z,55.00
2022-08-08T13:13:59.717Z,54.60
2022-08-08T13:20:48.847Z,54.60
2022-08-08T13:27:35.528Z,54.20
2022-08-08T13:34:33.127Z,54.80
2022-08-08T13:41:19.022Z,54.80
2022-08-08T13:48:13.688Z,54.10
2022-08-08T13:54:59.071Z,54.30
2022-08-08T14:01:53.119Z,55.10
2022-08-08T14:08:45.888Z,53.50
2022-08-08T14:15:46.479Z,53.80
2022-08-08T14:22:37.614Z,53.40
2022-08-08T14:29:28.114Z,53.70
2022-08-08T14:36:13.467Z,53.00
2022-08-08T14:43:01.487Z,54.90
2022-08-08T14:50:16.193Z,52.70
2022-08-08T14:57:05.070Z,53.00
2022-08-08T15:03:53.564Z,52.20
2022-08-08T15:10:50.417Z,52.10
2022-08-08T15:17:33.225Z,52.40
2022-08-08T15:24:19.054Z,51.60
2022-08-08T15:31:03.996Z,52.10
2022-08-08T15:37:46.413Z,52.00
2022-08-08T15:44:29.562Z,51.90
2022-08-08T15:51:15.503Z,51.60
2022-08-08T15:57:58.696Z,51.70
2022-08-08T16:04:42.481Z,51.30
2022-08-08T16:13:20.912Z,51.50
2022-08-08T16:18:28.244Z,51.30
2022-08-08T16:25:10.860Z,51.30
2022-08-08T16:31:53.246Z,50.80
2022-08-08T16:38:35.902Z,50.80
2022-08-08T16:46:37.079Z,51.00
2022-08-08T16:55:05.940Z,50.60
2022-08-08T16:59:52.009Z,50.30
2022-08-08T17:06:36.601Z,50.40
2022-08-08T17:13:20.529Z,49.40
2022-08-08T17:20:10.542Z,49.70
2022-08-08T17:26:58.010Z,49.80
2022-08-08T17:34:36.683Z,50.30
2022-08-08T17:40:43.989Z,49.80
2022-08-08T17:47:40.632Z,50.30
2022-08-08T17:54:26.140Z,50.10
2022-08-08T18:01:11.451Z,50.30
2022-08-08T18:08:15.582Z,51.00
2022-08-08T18:14:56.104Z,51.40
2022-08-08T18:22:01.269Z,52.00
2022-08-08T18:28:54.399Z,52.30
2022-08-08T18:35:47.509Z,52.90
2022-08-08T18:42:31.355Z,53.40
2022-08-08T18:49:13.688Z,53.80
2022-08-08T18:55:56.047Z,53.90
2022-08-08T19:02:38.435Z,54.50
2022-08-08T19:09:48.494Z,55.60
2022-08-08T19:16:33.147Z,59.20
2022-08-08T19:23:16.599Z,58.40
2022-08-08T19:29:59.861Z,60.10
2022-08-08T19:36:42.239Z,61.80
2022-08-08T19:43:28.129Z,62.10
2022-08-08T19:50:14.830Z,62.30
2022-08-08T19:56:57.726Z,63.80
2022-08-08T20:04:00.988Z,63.50
2022-08-08T20:10:44.348Z,64.80
2022-08-08T20:17:37.189Z,64.90
2022-08-08T20:24:20.238Z,64.20
2022-08-08T20:31:02.575Z,64.20
2022-08-08T20:37:53.349Z,64.30
2022-08-08T20:44:37.776Z,64.70
2022-08-08T20:51:20.820Z,67.40
2022-08-08T20:58:03.555Z,68.70
2022-08-08T21:05:00.824Z,69.00
2022-08-08T21:11:51.285Z,69.20
2022-08-08T21:18:34.993Z,69.70
2022-08-08T21:25:17.419Z,69.10
2022-08-08T21:32:00.206Z,72.20
2022-08-08T21:38:42.849Z,77.50
2022-08-08T21:48:01.836Z,78.30
2022-08-08T21:54:33.037Z,79.90
2022-08-08T22:00:03.197Z,82.10
2022-08-08T22:06:33.431Z,82.40
2022-08-08T22:13:21.570Z,83.30
2022-08-08T22:20:11.602Z,84.00
2022-08-08T22:27:01.999Z,85.30
2022-08-08T22:34:13.574Z,85.00
2022-08-08T22:40:50.314Z,82.60
2022-08-08T22:47:34.228Z,89.80
2022-08-08T22:54:30.027Z,90.50
2022-08-08T23:02:02.260Z,90.10
2022-08-08T23:08:20.102Z,89.50
2022-08-08T23:15:10.774Z,87.10
2022-08-08T23:22:09.351Z,90.20
2022-08-08T23:28:52.099Z,91.70
2022-08-08T23:36:06.747Z,92.20
2022-08-08T23:42:37.041Z,90.30
2022-08-08T23:49:21.663Z,90.00
2022-08-08T23:56:07.103Z,90.80
